Time;durP1;ratioP1;P1;durP2;ratioP2;P2;SDS_P1;SDS_P2;PMS_P1;PMS_P2;Temp;Humidity;BMP_temperature;BMP_pressure;BME280_temperature;BME280_humidity;BME280_pressure;Samples;Min_cycle;Max_cycle;Signal;HPM_P1;HPM_P2
2022/03/30 00:00:45;;;;;;;12.73;9.75;;;20.10;38.20;;;;;;5005430;28;20026;-74
2022/03/30 00:03:12;;;;;;;12.70;10.10;;;20.10;38.10;;;;;;5004061;28;20019;-74
2022/03/30 00:05:38;;;;;;;12.23;9.38;;;20.10;38.10;;;;;;5004554;28;20037;-76
2022/03/30 00:08:04;;;;;;;13.02;10.02;;;20.00;37.90;;;;;;5002820;28;20022;-73
2022/03/30 00:10:30;;;;;;;14.85;10.48;;;20.00;38.10;;;;;;5002231;28;20048;-74
2022/03/30 00:12:56;;;;;;;13.30;9.77;;;20.00;38.00;;;;;;5002186;28;20022;-74
2022/03/30 00:15:24;;;;;;;13.10;10.13;;;20.00;38.00;;;;;;4985047;28;20052;-74
2022/03/30 00:17:49;;;;;;;15.95;10.32;;;20.00;38.00;;;;;;5000683;28;20061;-73
2022/03/30 00:20:15;;;;;;;12.52;9.85;;;20.00;38.00;;;;;;4984246;28;20018;-74
2022/03/30 00:22:42;;;;;;;12.18;9.65;;;20.00;37.90;;;;;;5000243;28;20036;-74
2022/03/30 00:25:09;;;;;;;12.95;9.85;;;20.00;37.90;;;;;;5001263;28;20069;-73
2022/03/30 00:27:35;;;;;;;12.52;10.07;;;20.00;37.90;;;;;;4983955;28;20116;-73
2022/03/30 00:30:01;;;;;;;14.55;10.52;;;20.00;37.90;;;;;;4999851;28;20033;-74
2022/03/30 00:32:26;;;;;;;14.07;10.18;;;20.00;37.70;;;;;;4999578;28;20018;-73
2022/03/30 00:34:53;;;;;;;12.57;10.05;;;20.00;37.80;;;;;;4999212;28;20030;-74
2022/03/30 00:37:19;;;;;;;15.40;10.10;;;20.00;37.70;;;;;;4999196;28;20033;-75
2022/03/30 00:39:47;;;;;;;12.05;9.60;;;19.90;37.70;;;;;;5000948;28;20030;-74
2022/03/30 00:42:15;;;;;;;12.48;10.07;;;19.90;37.70;;;;;;5001266;28;20034;-74
2022/03/30 00:44:41;;;;;;;12.63;10.02;;;19.90;37.50;;;;;;5004421;28;20026;-74
2022/03/30 00:47:18;;;;;;;14.90;9.85;;;19.90;37.60;;;;;;4986504;28;20512;-75
2022/03/30 00:49:45;;;;;;;14.50;10.38;;;19.90;37.60;;;;;;5003520;28;20097;-76
2022/03/30 00:52:12;;;;;;;13.52;9.88;;;19.90;37.50;;;;;;5002874;28;20018;-74
2022/03/30 00:54:38;;;;;;;16.70;11.15;;;19.90;37.60;;;;;;5003503;28;20056;-74
2022/03/30 00:57:06;;;;;;;13.20;10.05;;;19.90;37.50;;;;;;5002284;28;20015;-75
2022/03/30 00:59:32;;;;;;;14.85;10.13;;;19.90;37.50;;;;;;5002116;28;20060;-74
2022/03/30 01:02:01;;;;;;;14.70;10.80;;;19.90;37.50;;;;;;4984838;28;20019;-73
2022/03/30 01:04:28;;;;;;;12.80;10.35;;;19.90;37.40;;;;;;5001212;28;20041;-76
2022/03/30 01:06:53;;;;;;;13.73;10.43;;;19.90;37.40;;;;;;4984509;28;20026;-74
2022/03/30 01:09:20;;;;;;;17.48;12.07;;;19.90;37.40;;;;;;4984743;28;20023;-74
2022/03/30 01:11:48;;;;;;;13.85;10.30;;;19.80;37.30;;;;;;5002045;28;20089;-74
2022/03/30 01:14:14;;;;;;;14.52;11.10;;;19.80;37.30;;;;;;5000001;28;20026;-74
2022/03/30 01:16:40;;;;;;;15.52;10.35;;;19.80;37.30;;;;;;5001355;28;20049;-74
2022/03/30 01:19:07;;;;;;;14.85;10.57;;;19.80;37.30;;;;;;5002730;28;20023;-75
2022/03/30 01:21:37;;;;;;;14.35;11.23;;;19.80;37.20;;;;;;5002267;28;20026;-74
2022/03/30 01:24:05;;;;;;;12.93;10.52;;;19.80;37.20;;;;;;5002160;28;20096;-73
2022/03/30 01:26:31;;;;;;;15.82;10.93;;;19.90;37.30;;;;;;5003313;28;20026;-75
2022/03/30 01:28:57;;;;;;;15.75;10.70;;;19.80;37.20;;;;;;5001279;28;20363;-73
2022/03/30 01:34:08;;;;;;;13.32;10.68;;;19.80;37.10;;;;;;5002179;28;20030;-73
2022/03/30 01:36:37;;;;;;;13.02;9.73;;;19.80;37.10;;;;;;5002496;28;20027;-73
2022/03/30 01:39:05;;;;;;;12.60;10.05;;;19.80;37.10;;;;;;5003006;28;20030;-73
2022/03/30 01:41:31;;;;;;;13.82;9.85;;;19.80;37.10;;;;;;5003592;28;20025;-75
2022/03/30 01:43:58;;;;;;;15.63;10.43;;;19.80;37.10;;;;;;5003491;28;20030;-77
2022/03/30 01:46:24;;;;;;;13.07;10.13;;;19.80;37.10;;;;;;5002734;28;20393;-74
2022/03/30 01:48:50;;;;;;;14.75;10.15;;;19.80;37.10;;;;;;4999876;28;20069;-74
2022/03/30 01:51:16;;;;;;;13.68;10.13;;;19.80;37.00;;;;;;4999439;28;20010;-75
2022/03/30 01:53:42;;;;;;;13.10;10.13;;;19.80;37.00;;;;;;5001071;28;20037;-74
2022/03/30 01:56:08;;;;;;;13.45;9.93;;;19.80;37.10;;;;;;5000110;28;20073;-75
2022/03/30 01:58:35;;;;;;;15.45;10.68;;;19.80;37.00;;;;;;5001149;28;20010;-74
2022/03/30 02:01:03;;;;;;;14.05;9.98;;;19.80;37.00;;;;;;4999275;28;20549;-74
2022/03/30 02:03:30;;;;;;;14.05;10.35;;;19.80;37.00;;;;;;4985725;28;20030;-74
2022/03/30 02:05:57;;;;;;;13.02;10.10;;;19.70;36.90;;;;;;4985450;28;20034;-74
2022/03/30 02:08:23;;;;;;;14.48;10.23;;;19.70;36.90;;;;;;5005332;28;20026;-76
2022/03/30 02:10:50;;;;;;;12.55;10.10;;;19.80;36.90;;;;;;5004458;28;20030;-75
2022/03/30 02:13:16;;;;;;;13.57;10.57;;;19.70;36.90;;;;;;5003642;28;20015;-77
2022/03/30 02:15:42;;;;;;;12.98;9.90;;;19.80;36.90;;;;;;5023949;28;20772;-77
2022/03/30 02:18:10;;;;;;;15.63;10.73;;;19.70;36.90;;;;;;5041887;28;20064;-78
2022/03/30 02:20:36;;;;;;;14.82;10.05;;;19.70;36.80;;;;;;5042715;28;20028;-76
2022/03/30 02:23:02;;;;;;;16.20;10.52;;;19.70;36.80;;;;;;5040999;28;20032;-77
2022/03/30 02:25:29;;;;;;;14.90;10.63;;;19.70;36.70;;;;;;5042267;28;20036;-76
2022/03/30 02:27:57;;;;;;;17.17;10.73;;;19.70;36.80;;;;;;5039885;28;20073;-77
2022/03/30 02:30:23;;;;;;;13.88;9.43;;;19.70;36.70;;;;;;5038740;28;20032;-76
2022/03/30 02:32:49;;;;;;;12.82;10.18;;;19.70;36.70;;;;;;5044493;28;19998;-76
2022/03/30 02:35:17;;;;;;;13.23;10.02;;;19.70;36.70;;;;;;5045974;28;20487;-82
2022/03/30 02:37:43;;;;;;;15.50;9.90;;;19.70;36.70;;;;;;5040783;28;20022;-77
2022/03/30 02:40:09;;;;;;;12.52;9.63;;;19.70;36.70;;;;;;5039283;28;20067;-74
2022/03/30 02:42:37;;;;;;;11.98;9.40;;;19.70;36.70;;;;;;5039616;28;20022;-76
2022/03/30 02:45:04;;;;;;;15.10;10.15;;;19.70;36.70;;;;;;5041914;28;20049;-78
2022/03/30 02:50:15;;;;;;;13.50;10.10;;;19.60;36.60;;;;;;5043210;28;20087;-79
2022/03/30 02:52:41;;;;;;;12.38;9.75;;;19.60;36.50;;;;;;5042082;28;20439;-74
2022/03/30 02:55:08;;;;;;;12.43;9.02;;;19.70;36.70;;;;;;5041064;28;20022;-75
2022/03/30 02:57:34;;;;;;;13.75;10.27;;;19.60;36.60;;;;;;5040453;28;20049;-77
2022/03/30 03:00:00;;;;;;;16.25;10.27;;;19.60;36.50;;;;;;5041843;28;20025;-76
2022/03/30 03:02:29;;;;;;;13.77;9.23;;;19.70;36.70;;;;;;5039319;28;20056;-76
2022/03/30 03:04:55;;;;;;;12.60;9.60;;;19.70;36.60;;;;;;5023163;28;20037;-76
2022/03/30 03:07:21;;;;;;;12.13;9.13;;;19.60;36.50;;;;;;5039371;28;20026;-80
2022/03/30 03:09:47;;;;;;;12.88;9.82;;;19.60;36.50;;;;;;5039770;28;20045;-77
2022/03/30 03:12:13;;;;;;;11.68;8.70;;;19.60;36.50;;;;;;5038238;28;20116;-76
2022/03/30 03:14:41;;;;;;;13.30;9.65;;;19.60;36.50;;;;;;5039035;28;20049;-76
2022/03/30 03:17:07;;;;;;;14.25;9.20;;;19.60;36.50;;;;;;5037918;28;20026;-76
2022/03/30 03:19:33;;;;;;;13.90;9.60;;;19.60;36.50;;;;;;5039045;28;20122;-76
2022/03/30 03:22:00;;;;;;;12.38;9.05;;;19.60;36.50;;;;;;5021256;28;20420;-76
2022/03/30 03:24:26;;;;;;;13.15;9.27;;;19.60;36.40;;;;;;5038101;28;20041;-77
2022/03/30 03:26:52;;;;;;;13.82;9.23;;;19.60;36.40;;;;;;5020905;28;20018;-76
2022/03/30 03:29:18;;;;;;;12.55;8.65;;;19.60;36.40;;;;;;5038512;28;20017;-83
2022/03/30 03:31:44;;;;;;;11.45;8.77;;;19.60;36.40;;;;;;5039011;28;20026;-77
2022/03/30 03:34:12;;;;;;;13.38;8.68;;;19.60;36.40;;;;;;5040284;28;20021;-76
2022/03/30 03:36:40;;;;;;;13.85;9.55;;;19.60;36.50;;;;;;5038046;28;20071;-76
2022/03/30 03:39:06;;;;;;;11.60;8.63;;;19.60;36.40;;;;;;5038179;28;20017;-77
2022/03/30 03:41:32;;;;;;;14.80;9.10;;;19.60;36.40;;;;;;5038396;28;20033;-75
2022/03/30 03:43:58;;;;;;;12.07;9.25;;;19.60;36.50;;;;;;5038921;28;20504;-76
2022/03/30 03:46:24;;;;;;;12.80;8.25;;;19.60;36.50;;;;;;5039343;28;20392;-80
2022/03/30 03:48:53;;;;;;;11.43;8.05;;;19.60;36.50;;;;;;5039662;28;20014;-76
2022/03/30 03:51:19;;;;;;;11.50;8.40;;;19.70;36.30;;;;;;5037738;28;20009;-75
2022/03/30 03:53:44;;;;;;;9.57;7.35;;;19.80;36.10;;;;;;5037321;28;20020;-77
2022/03/30 03:56:10;;;;;;;10.05;7.40;;;20.00;35.80;;;;;;5037139;28;20029;-80
2022/03/30 03:58:37;;;;;;;10.93;7.75;;;20.10;35.40;;;;;;5037328;28;20033;-76
2022/03/30 04:01:03;;;;;;;11.77;7.95;;;20.30;35.20;;;;;;5038175;28;20041;-76
2022/03/30 04:03:29;;;;;;;11.50;8.13;;;20.40;35.00;;;;;;5039836;28;20029;-76
2022/03/30 04:05:54;;;;;;;13.75;7.72;;;20.40;34.80;;;;;;5023669;28;20369;-77
2022/03/30 04:08:21;;;;;;;10.75;7.60;;;20.60;34.70;;;;;;5038852;28;20080;-76
2022/03/30 04:10:47;;;;;;;10.27;7.40;;;20.70;34.50;;;;;;5039524;28;20021;-75
2022/03/30 04:13:13;;;;;;;10.70;7.60;;;20.80;34.20;;;;;;5024397;28;20022;-76
2022/03/30 04:15:40;;;;;;;11.02;7.22;;;20.90;34.00;;;;;;5040823;28;20120;-76
2022/03/30 04:18:07;;;;;;;9.50;6.80;;;21.00;33.80;;;;;;5042107;28;20024;-84
2022/03/30 04:20:33;;;;;;;10.65;6.85;;;21.10;33.60;;;;;;5042620;28;20013;-79
2022/03/30 04:22:59;;;;;;;9.95;6.93;;;21.20;33.50;;;;;;5041772;28;20016;-82
2022/03/30 04:25:29;;;;;;;11.18;6.78;;;21.30;33.20;;;;;;5042364;28;20030;-75
2022/03/30 04:27:57;;;;;;;11.82;7.15;;;21.40;33.00;;;;;;5040993;28;20025;-85
2022/03/30 04:30:23;;;;;;;10.30;6.57;;;21.50;32.80;;;;;;5042326;28;20080;-76
2022/03/30 04:32:51;;;;;;;10.63;6.90;;;21.60;32.60;;;;;;5041569;28;20423;-76
2022/03/30 04:35:18;;;;;;;10.50;6.85;;;21.80;32.30;;;;;;5039942;28;20025;-76
2022/03/30 04:37:44;;;;;;;10.23;6.70;;;21.80;32.10;;;;;;5039082;28;20572;-75
2022/03/30 04:40:10;;;;;;;9.60;6.50;;;21.90;32.10;;;;;;5021989;28;20128;-85
2022/03/30 04:42:36;;;;;;;9.95;6.38;;;21.90;31.90;;;;;;5038946;28;20089;-81
2022/03/30 04:45:03;;;;;;;9.43;5.85;;;22.00;31.80;;;;;;5037964;28;20036;-76
2022/03/30 04:47:30;;;;;;;9.27;6.13;;;22.10;31.60;;;;;;5038009;28;20058;-75
2022/03/30 04:49:56;;;;;;;8.30;6.22;;;22.20;31.50;;;;;;5037727;28;20014;-75
2022/03/30 04:52:22;;;;;;;10.05;6.40;;;22.20;31.40;;;;;;5038277;28;20021;-81
2022/03/30 04:54:50;;;;;;;9.57;5.97;;;22.20;31.90;;;;;;5039759;28;20014;-83
2022/03/30 04:57:16;;;;;;;9.98;5.93;;;22.20;31.30;;;;;;5040802;28;20484;-75
2022/03/30 04:59:42;;;;;;;9.13;6.15;;;22.20;31.20;;;;;;5040171;28;20026;-75
2022/03/30 05:02:08;;;;;;;8.77;6.00;;;22.30;31.10;;;;;;5040793;28;20017;-75
2022/03/30 05:04:34;;;;;;;8.63;6.00;;;22.40;31.10;;;;;;5040328;28;20546;-76
2022/03/30 05:07:01;;;;;;;9.98;5.55;;;22.40;30.90;;;;;;5040120;28;20029;-75
2022/03/30 05:09:26;;;;;;;9.43;5.80;;;22.50;30.80;;;;;;5040104;28;20029;-76
2022/03/30 05:11:53;;;;;;;9.77;5.88;;;22.50;30.80;;;;;;5039347;28;20025;-75
2022/03/30 05:14:20;;;;;;;7.97;5.60;;;22.50;30.80;;;;;;5038745;28;20022;-75
2022/03/30 05:16:46;;;;;;;7.40;5.30;;;22.50;30.70;;;;;;5037980;28;20025;-75
2022/03/30 05:19:12;;;;;;;7.38;5.35;;;22.50;30.60;;;;;;5038450;28;20052;-75
2022/03/30 05:21:38;;;;;;;7.30;5.43;;;22.60;30.60;;;;;;5020470;28;20013;-76
2022/03/30 05:24:06;;;;;;;9.00;5.85;;;22.50;30.60;;;;;;5037125;28;20084;-76
2022/03/30 05:26:31;;;;;;;8.80;5.57;;;22.60;31.10;;;;;;5037275;28;20048;-76
2022/03/30 05:28:57;;;;;;;8.02;5.82;;;22.60;30.50;;;;;;5037243;28;20022;-75
2022/03/30 05:31:24;;;;;;;8.60;5.50;;;22.70;30.40;;;;;;5037467;28;20025;-75
2022/03/30 05:33:50;;;;;;;10.05;5.60;;;22.70;30.40;;;;;;5020588;28;20039;-83
2022/03/30 05:36:15;;;;;;;9.55;5.43;;;22.70;30.40;;;;;;5036658;28;20112;-75
2022/03/30 05:38:42;;;;;;;8.38;5.25;;;22.70;30.30;;;;;;5037050;28;20503;-76
2022/03/30 05:41:08;;;;;;;8.95;5.40;;;22.70;30.40;;;;;;5036801;28;20018;-75
2022/03/30 05:43:34;;;;;;;10.27;5.53;;;22.70;30.40;;;;;;5020646;28;20088;-76
2022/03/30 05:46:00;;;;;;;8.32;5.03;;;22.60;30.30;;;;;;5038591;28;20026;-73
2022/03/30 05:48:26;;;;;;;8.27;5.18;;;22.50;30.40;;;;;;5038601;28;20013;-75
2022/03/30 05:50:55;;;;;;;8.15;5.10;;;22.50;30.40;;;;;;5039468;28;20502;-74
2022/03/30 05:53:21;;;;;;;10.63;5.55;;;22.50;30.50;;;;;;5021691;28;20010;-75
2022/03/30 05:55:46;;;;;;;8.35;5.00;;;22.40;30.60;;;;;;5037559;28;20025;-75
2022/03/30 05:58:14;;;;;;;8.27;5.07;;;22.40;30.90;;;;;;5038951;28;20396;-77
2022/03/30 06:00:40;;;;;;;7.90;4.95;;;22.30;30.90;;;;;;5036964;28;20025;-75
2022/03/30 06:03:06;;;;;;;8.65;5.20;;;22.30;30.90;;;;;;5037077;28;20021;-74
2022/03/30 06:05:32;;;;;;;10.55;5.60;;;22.20;31.00;;;;;;5019207;28;20034;-74
2022/03/30 06:07:59;;;;;;;8.30;5.18;;;22.20;31.00;;;;;;5035281;28;20022;-74
2022/03/30 06:10:28;;;;;;;7.75;4.90;;;22.20;31.10;;;;;;5035170;28;20100;-75
2022/03/30 06:12:57;;;;;;;9.27;5.32;;;22.20;31.10;;;;;;5038404;28;20527;-76
2022/03/30 06:15:23;;;;;;;8.57;5.00;;;22.10;31.20;;;;;;5035769;28;20077;-74
2022/03/30 06:17:50;;;;;;;7.45;5.45;;;22.10;31.20;;;;;;5036105;28;20025;-78
2022/03/30 06:20:16;;;;;;;8.02;5.22;;;22.10;31.20;;;;;;5036084;28;20112;-73
2022/03/30 06:22:42;;;;;;;7.28;4.70;;;22.20;31.20;;;;;;5036715;28;20090;-75
2022/03/30 06:25:11;;;;;;;7.30;5.20;;;22.10;31.10;;;;;;5035190;28;20041;-75
2022/03/30 06:27:38;;;;;;;8.07;5.53;;;22.20;31.10;;;;;;5035992;28;20591;-76
2022/03/30 06:30:05;;;;;;;8.23;4.95;;;22.20;31.10;;;;;;5035426;28;20032;-74
2022/03/30 06:32:31;;;;;;;9.23;5.22;;;22.20;31.00;;;;;;5034879;28;20540;-82
2022/03/30 06:34:57;;;;;;;9.45;5.65;;;22.20;30.90;;;;;;5019672;28;20049;-75
2022/03/30 06:37:23;;;;;;;9.18;4.95;;;22.20;30.90;;;;;;5038151;28;20384;-74
2022/03/30 06:39:49;;;;;;;9.05;4.95;;;22.20;30.90;;;;;;5037068;28;20425;-74
2022/03/30 06:42:16;;;;;;;9.80;5.20;;;22.20;30.90;;;;;;5038204;28;20041;-74
2022/03/30 06:44:42;;;;;;;6.50;4.75;;;22.20;30.80;;;;;;5036139;28;20080;-74
2022/03/30 06:47:08;;;;;;;8.45;4.80;;;22.20;31.40;;;;;;5035930;28;20068;-75
2022/03/30 06:49:35;;;;;;;7.30;4.60;;;22.20;30.90;;;;;;5035093;28;20060;-74
2022/03/30 06:52:01;;;;;;;7.13;5.05;;;22.30;30.90;;;;;;5036169;28;20009;-73
2022/03/30 06:54:27;;;;;;;8.43;4.65;;;22.20;30.80;;;;;;5034512;28;20013;-74
2022/03/30 06:56:54;;;;;;;8.00;5.05;;;22.20;30.90;;;;;;5034764;28;20104;-74
2022/03/30 06:59:20;;;;;;;9.40;5.22;;;22.20;30.90;;;;;;5018224;28;20480;-73
2022/03/30 07:01:46;;;;;;;8.52;4.70;;;22.20;30.90;;;;;;5034927;28;20063;-73
2022/03/30 07:04:12;;;;;;;8.10;4.72;;;22.30;30.80;;;;;;5035390;28;20108;-81
2022/03/30 07:10:14;;;;;;;9.88;5.10;;;22.30;30.80;;;;;;5035365;28;20017;-74
2022/03/30 07:12:12;;;;;;;7.20;4.60;;;22.30;30.60;;;;;;5034549;28;20159;-77
2022/03/30 07:14:37;;;;;;;8.73;5.25;;;22.40;30.50;;;;;;5036069;28;20116;-74
2022/03/30 07:17:04;;;;;;;9.95;5.07;;;22.40;30.40;;;;;;5037703;28;20025;-73
2022/03/30 07:19:30;;;;;;;6.63;4.22;;;22.50;30.50;;;;;;5036752;28;20013;-77
2022/03/30 07:21:56;;;;;;;10.35;5.38;;;22.40;30.40;;;;;;5037704;28;20098;-74
2022/03/30 07:24:23;;;;;;;9.52;5.40;;;22.50;30.90;;;;;;5037256;28;20033;-74
2022/03/30 07:26:50;;;;;;;10.70;5.72;;;22.50;30.20;;;;;;5035810;28;20464;-74
2022/03/30 07:29:15;;;;;;;8.13;4.68;;;22.60;30.10;;;;;;5037703;28;20052;-74
2022/03/30 07:31:43;;;;;;;7.95;5.00;;;22.70;30.00;;;;;;5035472;28;20018;-74
2022/03/30 07:34:09;;;;;;;8.63;4.93;;;22.60;30.00;;;;;;5036074;28;20018;-75
2022/03/30 07:36:35;;;;;;;10.93;4.85;;;22.70;30.00;;;;;;5036955;28;20033;-76
2022/03/30 07:39:00;;;;;;;8.80;4.40;;;22.80;30.00;;;;;;5039154;28;20484;-74
2022/03/30 07:41:27;;;;;;;7.68;4.47;;;22.80;29.90;;;;;;5039557;28;20009;-73
2022/03/30 07:43:53;;;;;;;8.13;4.57;;;22.80;29.80;;;;;;5038962;28;20045;-74
2022/03/30 07:46:19;;;;;;;6.95;4.20;;;22.90;29.90;;;;;;5038826;28;20432;-74
2022/03/30 07:48:45;;;;;;;7.65;4.30;;;22.90;29.90;;;;;;5039677;28;20017;-75
2022/03/30 07:51:11;;;;;;;6.50;4.20;;;22.90;29.90;;;;;;5038944;28;20020;-73
2022/03/30 07:53:37;;;;;;;7.72;4.70;;;22.90;29.90;;;;;;5037419;28;20431;-75
2022/03/30 07:56:03;;;;;;;8.10;4.43;;;22.90;29.80;;;;;;5038262;28;20089;-75
2022/03/30 07:58:29;;;;;;;8.32;4.80;;;22.90;29.80;;;;;;5037016;28;20050;-74
2022/03/30 08:00:56;;;;;;;7.72;4.25;;;22.90;29.70;;;;;;5037023;28;20396;-74
2022/03/30 08:03:21;;;;;;;8.38;4.57;;;23.00;29.70;;;;;;5020697;28;20092;-74
2022/03/30 08:05:47;;;;;;;7.45;4.63;;;23.10;29.60;;;;;;5037122;28;20097;-74
2022/03/30 08:08:13;;;;;;;9.43;4.80;;;23.10;29.50;;;;;;5036847;28;20026;-74
2022/03/30 08:10:39;;;;;;;6.85;4.25;;;23.20;29.40;;;;;;5037068;28;20022;-75
2022/03/30 08:13:05;;;;;;;8.77;4.60;;;23.30;29.30;;;;;;5037629;28;20075;-76
2022/03/30 08:15:31;;;;;;;8.45;4.72;;;23.40;29.20;;;;;;5037517;28;20060;-83
2022/03/30 08:17:57;;;;;;;8.10;4.30;;;23.40;29.10;;;;;;5021336;28;20041;-80
2022/03/30 08:23:08;;;;;;;6.53;4.32;;;23.60;29.00;;;;;;5037864;28;20033;-73
2022/03/30 08:25:35;;;;;;;10.48;5.00;;;23.60;29.00;;;;;;5037423;28;20026;-73
2022/03/30 08:28:01;;;;;;;7.03;4.15;;;23.70;29.10;;;;;;5037133;28;20025;-82
2022/03/30 08:30:27;;;;;;;6.30;3.83;;;23.70;28.80;;;;;;5036488;28;20024;-73
2022/03/30 08:32:54;;;;;;;8.13;4.50;;;23.80;28.80;;;;;;5038051;28;20025;-73
2022/03/30 08:35:21;;;;;;;8.23;4.53;;;23.80;28.70;;;;;;5036557;28;20031;-72
2022/03/30 08:37:47;;;;;;;7.85;4.40;;;23.80;28.70;;;;;;5036606;28;20040;-73
2022/03/30 08:40:12;;;;;;;7.45;4.40;;;23.80;28.70;;;;;;5038044;28;20025;-74
2022/03/30 08:42:40;;;;;;;7.18;3.83;;;23.80;28.80;;;;;;5020525;28;20044;-73
2022/03/30 08:45:07;;;;;;;7.13;4.78;;;23.70;28.70;;;;;;5038254;28;20018;-75
2022/03/30 08:47:33;;;;;;;6.47;4.15;;;23.80;28.70;;;;;;5021501;28;20056;-74
2022/03/30 08:49:59;;;;;;;9.50;4.53;;;23.70;28.80;;;;;;5038883;28;20013;-74
2022/03/30 08:52:24;;;;;;;7.03;4.18;;;23.70;28.80;;;;;;5038340;28;20021;-78
2022/03/30 08:54:51;;;;;;;8.65;4.25;;;23.70;28.80;;;;;;5020792;28;20014;-74
2022/03/30 08:57:19;;;;;;;7.13;4.00;;;23.60;28.80;;;;;;5020758;28;20025;-73
2022/03/30 09:00:05;;;;;;;7.78;4.25;;;23.60;28.80;;;;;;5036232;28;20013;-83
2022/03/30 09:02:41;;;;;;;12.88;4.97;;;23.60;28.80;;;;;;5037940;28;20028;-73
2022/03/30 09:05:21;;;;;;;6.65;3.78;;;23.60;28.80;;;;;;5035672;28;20030;-73
2022/03/30 09:07:49;;;;;;;7.70;4.32;;;23.50;28.80;;;;;;5036467;28;20024;-74
2022/03/30 09:10:20;;;;;;;10.25;4.55;;;23.50;28.80;;;;;;5036341;28;20017;-73
2022/03/30 09:12:48;;;;;;;7.75;4.50;;;23.40;28.80;;;;;;5036337;28;20013;-73
2022/03/30 09:15:14;;;;;;;9.77;4.68;;;23.40;28.80;;;;;;5035764;28;20040;-73
2022/03/30 09:17:41;;;;;;;8.77;4.78;;;23.30;28.70;;;;;;5037339;28;20049;-75
2022/03/30 09:20:13;;;;;;;8.38;4.60;;;23.30;28.90;;;;;;5037723;28;20009;-83
2022/03/30 09:22:44;;;;;;;10.55;4.38;;;23.20;29.10;;;;;;5021820;28;20021;-75
2022/03/30 09:25:11;;;;;;;10.93;4.72;;;23.20;29.10;;;;;;5036835;28;20025;-72
2022/03/30 09:27:41;;;;;;;11.68;4.55;;;23.20;29.00;;;;;;5036427;28;20069;-74
2022/03/30 09:30:11;;;;;;;7.97;4.50;;;23.20;29.10;;;;;;5020641;28;20100;-74
2022/03/30 09:32:38;;;;;;;10.65;4.25;;;23.20;29.00;;;;;;5036217;28;20013;-75
2022/03/30 09:35:05;;;;;;;10.98;4.90;;;23.20;28.90;;;;;;5037090;28;20013;-74
2022/03/30 09:37:31;;;;;;;9.45;4.28;;;23.30;28.90;;;;;;5036828;28;20132;-73
2022/03/30 09:39:57;;;;;;;10.63;4.70;;;23.20;28.80;;;;;;5037533;28;20014;-74
2022/03/30 09:42:27;;;;;;;8.70;4.35;;;23.20;28.80;;;;;;5036786;28;20164;-73
2022/03/30 09:44:54;;;;;;;9.37;4.40;;;23.30;28.70;;;;;;5035581;28;20025;-75
2022/03/30 09:47:22;;;;;;;8.55;4.32;;;23.30;28.60;;;;;;5036748;28;20379;-75
2022/03/30 09:49:49;;;;;;;8.45;4.47;;;23.30;28.60;;;;;;5020162;28;20013;-75
2022/03/30 09:52:22;;;;;;;10.75;4.60;;;23.30;28.50;;;;;;5036929;28;20009;-73
2022/03/30 09:55:00;;;;;;;7.13;4.40;;;23.30;28.50;;;;;;5037786;28;20064;-73
2022/03/30 09:57:26;;;;;;;8.73;3.97;;;23.30;28.40;;;;;;5038624;28;20045;-75
2022/03/30 10:00:12;;;;;;;8.10;4.57;;;23.30;28.40;;;;;;5038784;28;20495;-82
2022/03/30 10:02:48;;;;;;;7.47;3.97;;;23.30;28.80;;;;;;5037886;28;20021;-74
2022/03/30 10:05:19;;;;;;;8.25;4.40;;;23.30;28.40;;;;;;5039270;28;20056;-75
2022/03/30 10:07:45;;;;;;;8.80;4.53;;;23.30;28.30;;;;;;5038557;28;20020;-74
2022/03/30 10:10:12;;;;;;;8.63;4.65;;;23.30;28.20;;;;;;5037609;28;20009;-73
2022/03/30 10:12:38;;;;;;;9.02;4.30;;;23.30;28.10;;;;;;5038768;28;20013;-75
2022/03/30 10:15:06;;;;;;;8.50;4.07;;;23.30;28.10;;;;;;5039645;28;20117;-74
2022/03/30 10:17:32;;;;;;;7.97;4.22;;;23.30;28.10;;;;;;5039633;28;20052;-73
2022/03/30 10:20:01;;;;;;;6.97;4.10;;;23.30;28.00;;;;;;5038631;28;20029;-75
2022/03/30 10:22:45;;;;;;;9.55;4.15;;;23.30;28.00;;;;;;5038369;28;20028;-74
2022/03/30 10:25:49;;;;;;;10.00;4.40;;;23.20;28.10;;;;;;5038512;28;20058;-74
2022/03/30 10:28:22;;;;;;;8.93;3.92;;;23.20;28.10;;;;;;5038961;28;20443;-74
2022/03/30 10:30:53;;;;;;;8.63;3.97;;;23.10;28.10;;;;;;5039731;28;20013;-74
2022/03/30 10:33:44;;;;;;;7.53;4.18;;;23.10;28.20;;;;;;5038019;28;20017;-76
2022/03/30 10:36:32;;;;;;;8.93;4.28;;;23.10;28.20;;;;;;5043164;28;20021;-75
2022/03/30 10:39:16;;;;;;;8.63;4.05;;;23.10;28.20;;;;;;5043581;28;20018;-76
2022/03/30 10:41:52;;;;;;;7.82;4.35;;;23.00;28.20;;;;;;5041754;28;20072;-75
2022/03/30 10:44:41;;;;;;;6.68;3.97;;;22.90;28.20;;;;;;5042111;28;20101;-75
2022/03/30 10:47:17;;;;;;;8.10;4.20;;;22.90;28.30;;;;;;5040791;28;20022;-75
2022/03/30 10:49:51;;;;;;;6.68;3.65;;;22.90;28.20;;;;;;5039344;28;20021;-74
2022/03/30 10:52:25;;;;;;;10.20;4.68;;;22.90;28.20;;;;;;5039354;28;20017;-75
2022/03/30 10:54:55;;;;;;;8.15;4.10;;;22.90;28.20;;;;;;5036941;28;20013;-74
2022/03/30 10:57:49;;;;;;;8.20;4.22;;;22.90;28.20;;;;;;5020763;28;20056;-74
2022/03/30 11:00:36;;;;;;;7.93;4.05;;;22.90;28.20;;;;;;5034974;28;20021;-75
2022/03/30 11:03:28;;;;;;;8.55;4.32;;;22.80;28.20;;;;;;5036550;28;20534;-75
2022/03/30 11:06:05;;;;;;;7.28;4.43;;;22.70;28.20;;;;;;5017063;28;20124;-75
2022/03/30 11:08:34;;;;;;;6.97;4.18;;;22.70;28.30;;;;;;5035038;28;20009;-74
2022/03/30 11:11:01;;;;;;;8.55;3.97;;;22.70;28.30;;;;;;5034641;28;20021;-74
2022/03/30 11:13:26;;;;;;;7.05;4.07;;;22.60;28.30;;;;;;5018730;28;20044;-75
2022/03/30 11:16:01;;;;;;;8.63;4.10;;;22.60;28.40;;;;;;5035309;28;20105;-75
2022/03/30 11:18:27;;;;;;;8.10;4.00;;;22.60;28.40;;;;;;5038228;28;20026;-82
2022/03/30 11:21:26;;;;;;;6.88;4.03;;;22.50;28.40;;;;;;5036582;28;20041;-75
2022/03/30 11:23:57;;;;;;;6.57;3.90;;;22.50;28.50;;;;;;4995164;28;20046;-74
2022/03/30 11:26:23;;;;;;;9.13;4.20;;;22.50;28.50;;;;;;4979938;28;20039;-74
2022/03/30 11:28:49;;;;;;;9.27;4.22;;;22.50;28.50;;;;;;4995738;28;20082;-75
2022/03/30 11:31:22;;;;;;;8.95;4.28;;;22.50;28.60;;;;;;4996036;28;20093;-72
2022/03/30 11:34:27;;;;;;;10.55;4.40;;;22.50;28.60;;;;;;4996187;28;20029;-73
2022/03/30 11:36:53;;;;;;;7.25;4.50;;;22.60;28.50;;;;;;4980963;28;20046;-74
2022/03/30 11:39:34;;;;;;;9.15;4.50;;;22.50;28.50;;;;;;4979770;28;20031;-73
2022/03/30 11:42:00;;;;;;;8.27;4.20;;;22.50;28.50;;;;;;4996363;28;20023;-79
2022/03/30 11:47:16;;;;;;;8.88;4.78;;;22.50;28.50;;;;;;5000143;28;20103;-78
2022/03/30 11:49:50;;;;;;;10.30;4.40;;;22.50;28.50;;;;;;5000662;28;20031;-82
2022/03/30 11:52:17;;;;;;;9.05;4.45;;;22.50;28.60;;;;;;5001574;28;20034;-78
2022/03/30 11:54:50;;;;;;;9.52;4.32;;;22.60;28.60;;;;;;4999431;28;20019;-76
2022/03/30 11:57:16;;;;;;;12.32;4.35;;;22.60;28.60;;;;;;4981244;28;20519;-74
2022/03/30 11:59:53;;;;;;;9.38;4.22;;;22.50;28.70;;;;;;5023779;28;20057;-73
2022/03/30 12:02:19;;;;;;;10.73;4.43;;;22.50;28.70;;;;;;5022721;28;20021;-74
2022/03/30 12:04:45;;;;;;;10.48;4.40;;;22.50;28.70;;;;;;5021591;28;20087;-73
2022/03/30 12:07:15;;;;;;;8.93;4.32;;;22.50;28.80;;;;;;5036822;28;20022;-74
2022/03/30 12:09:53;;;;;;;8.45;4.22;;;22.50;28.70;;;;;;5038922;28;20415;-82
2022/03/30 12:12:35;;;;;;;9.52;4.57;;;22.50;28.80;;;;;;5053300;28;20021;-75
2022/03/30 12:15:05;;;;;;;9.35;4.47;;;22.40;28.80;;;;;;5020620;28;20045;-84
2022/03/30 12:17:31;;;;;;;;;;;22.40;28.80;;;;;;5039215;28;20071;-79
2022/03/30 12:19:57;;;;;;;8.40;4.10;;;22.40;28.80;;;;;;5042009;28;19905;-75
2022/03/30 12:22:24;;;;;;;10.80;4.45;;;22.40;28.90;;;;;;5041331;28;20381;-81
2022/03/30 12:24:49;;;;;;;9.43;4.20;;;22.40;28.90;;;;;;5025058;28;20040;-73
2022/03/30 12:27:15;;;;;;;8.35;4.35;;;22.40;28.90;;;;;;5040157;28;20021;-74
2022/03/30 12:29:42;;;;;;;10.32;4.53;;;22.30;28.90;;;;;;5040416;28;20031;-73
2022/03/30 12:32:10;;;;;;;8.65;3.70;;;22.30;28.90;;;;;;5039627;28;20025;-74
2022/03/30 12:34:36;;;;;;;14.25;4.15;;;22.30;29.00;;;;;;5039446;28;20021;-73
2022/03/30 12:37:05;;;;;;;9.88;4.57;;;22.30;29.00;;;;;;5038376;28;20033;-72
2022/03/30 12:39:40;;;;;;;9.93;4.20;;;22.20;29.00;;;;;;5040369;28;20032;-74
2022/03/30 12:42:25;;;;;;;9.45;4.30;;;22.20;29.10;;;;;;5040352;28;20400;-73
2022/03/30 12:44:54;;;;;;;7.65;4.18;;;22.20;29.20;;;;;;5038546;28;20021;-76
2022/03/30 12:47:34;;;;;;;10.27;4.50;;;22.20;29.10;;;;;;5023317;28;20006;-80
2022/03/30 12:50:00;;;;;;;;;;;22.20;29.10;;;;;;5042837;28;20021;-76
2022/03/30 12:52:32;;;;;;;10.18;4.30;;;22.20;29.10;;;;;;5041811;28;20264;-75
2022/03/30 12:55:18;;;;;;;7.28;3.97;;;22.20;29.10;;;;;;5045474;28;20017;-74
2022/03/30 12:58:01;;;;;;;7.68;4.30;;;22.20;29.20;;;;;;5048056;28;20025;-76
2022/03/30 13:00:37;;;;;;;8.63;4.10;;;22.10;29.30;;;;;;5042901;28;20045;-74